• Join FlightAware (Why Join?)
  • Login
  • US Flag 
07:44PM EDT


 

Airport Tracker/Info


-or-


 

Live Flight TrackerFlight Track Log ✈ SKW6446 ✈ 19-Apr-2013 ✈ KSMX - KLAX

Flight Track Log - Related Links

Times and Time Zones

All times are in EDT time to prevent confusion due to time zone crossing. See the SKW6446 flight status page for this flight to view local times or setup timezone preferences in your user account.

Time Position Orientation Groundspeed Altitude Reporting Facility
EDT Latitude Longitude Course Direction KTS MPH feet Rate Location/Type
08:59PM 34.9339 -120.4358 39° Northeast 180 207 3,400  Level Los Angeles Center
09:00PM 34.9028 -120.3928 131° Southeast 196 226 5,100 1,800 Climbing Los Angeles Center
09:01PM 34.7761 -120.1861 112° Southeast  Level Estimated
09:02PM 34.7347 -120.0957 116° Southeast  Level Estimated
09:02PM 34.8183 -120.2636 129° Southeast 222 255 9,000  Level Los Angeles Center
09:03PM 34.6933 -120.0053 126° Southeast  Level Estimated
09:03PM 34.7769 -120.2011 129° Southeast 234 269 10,600  Level Los Angeles Center
09:04PM 34.7372 -120.1331 125° Southeast 244 281 11,600 900 Climbing Los Angeles Center
09:05PM 34.6956 -120.0647 127° Southeast 239 275 12,500 600 Climbing Los Angeles Center
09:06PM 34.6556 -119.9967 126° Southeast 246 283 12,900 180 Climbing Los Angeles Center
09:07PM 34.6119 -119.9242 126° Southeast 264 304 12,900  Level Los Angeles Center
09:08PM 34.5592 -119.8469 130° Southeast 270 311 13,000  Climbing Los Angeles Center
09:09PM 34.5117 -119.7742 128° Southeast 274 315 13,000  Level Los Angeles Center
09:10PM 34.4672 -119.6953 124° Southeast 282 325 13,000  Level Los Angeles Center
09:11PM 34.4186 -119.5983 121° Southeast 282 325 13,000  Level Los Angeles Center
09:12PM 34.3758 -119.5189 123° Southeast 282 325 13,000  Level Los Angeles Center
09:13PM 34.3314 -119.4408 125° Southeast 282 325 13,000 -120 Level Los Angeles Center
09:14PM 34.2883 -119.3603 123° Southeast 285 328 12,800 -540 Descending Los Angeles Center
09:15PM 34.2433 -119.2758 123° Southeast 301 346 11,900 -780 Descending Los Angeles Center
09:16PM 34.1961 -119.1911 124° Southeast 303 349 11,200 -420 Descending Los Angeles Center
09:17PM 34.1403 -119.0919 124° Southeast 297 342 11,100 -120 Descending Los Angeles Center
09:18PM 34.1189 -119.0025 106° East 277 319 11,000 -120 Descending Los Angeles Center
09:19PM 34.1025 -118.9114 102° East 277 319 10,900 -300 Descending Los Angeles Center
09:20PM 34.0839 -118.8175 103° East 286 329 10,400 -420 Descending Los Angeles Center
09:21PM 34.0631 -118.7139 104° East 293 337 10,100 -300 Descending Los Angeles Center
09:22PM 34.0436 -118.6164 104° East 281 323 9,900 -780 Descending Los Angeles Center
09:23PM 34.0244 -118.5228 104° East 289 333 8,500 -1,320 Descending Los Angeles Center
09:24PM 34.0161 -118.4294 96° East 278 320 7,200 -840 Descending Los Angeles Center
09:25PM 34.0250 -118.3494 82° East 247 284 6,800 -900 Descending Los Angeles Center
09:27PM 34.0333 -118.2778 82° East 223 257 5,400 -1,020 Descending Los Angeles Center
09:28PM 34.0333 -118.2078 90° East 230 265 4,800 -1,140 Descending Los Angeles Center
09:29PM 33.9831 -118.2189 190° South 228 262 3,100 -1,680 Descending Los Angeles Center